Time;durP1;ratioP1;P1;durP2;ratioP2;P2;SDS_P1;SDS_P2;PMS_P1;PMS_P2;Temp;Humidity;BMP_temperature;BMP_pressure;BME280_temperature;BME280_humidity;BME280_pressure;Samples;Min_cycle;Max_cycle;Signal;HPM_P1;HPM_P2
2023/03/14 04:00:49;;;;;;;13.90;13.30;;;9.40;99.90;;;;;;5669083;23;20297;-75
2023/03/14 04:03:15;;;;;;;14.80;14.00;;;9.40;99.90;;;;;;4916489;29;20568;-75
2023/03/14 04:05:40;;;;;;;10.43;9.97;;;9.40;99.90;;;;;;4916123;29;20330;-75
2023/03/14 04:08:06;;;;;;;5.63;5.43;;;9.40;99.90;;;;;;4914881;29;20179;-75
2023/03/14 04:10:35;;;;;;;5.03;4.83;;;9.40;99.90;;;;;;4915539;29;20687;-75
2023/03/14 04:13:01;;;;;;;4.37;4.10;;;9.50;99.90;;;;;;4934497;23;20192;-74
2023/03/14 04:15:26;;;;;;;5.77;5.47;;;9.60;99.90;;;;;;4897755;29;20187;-74
2023/03/14 04:17:57;;;;;;;6.47;6.27;;;9.60;99.90;;;;;;4896713;29;20191;-74
2023/03/14 04:20:23;;;;;;;7.10;6.80;;;9.50;99.90;;;;;;4896988;29;20223;-74
2023/03/14 04:22:49;;;;;;;6.40;6.10;;;9.50;99.90;;;;;;4896058;29;20278;-74
2023/03/14 04:25:17;;;;;;;6.00;5.67;;;9.50;99.90;;;;;;4896319;29;20283;-74
2023/03/14 04:27:42;;;;;;;8.03;7.60;;;9.50;99.90;;;;;;4896171;29;20268;-74
2023/03/14 04:30:09;;;;;;;5.27;4.90;;;9.50;99.90;;;;;;4898769;29;20223;-74
2023/03/14 04:32:34;;;;;;;5.17;5.00;;;9.50;99.90;;;;;;4889151;29;20192;-74
2023/03/14 04:35:00;;;;;;;5.40;5.20;;;9.50;99.90;;;;;;4888428;29;20211;-74
2023/03/14 04:37:26;;;;;;;15.37;14.47;;;9.60;99.90;;;;;;4895516;29;20236;-73
2023/03/14 04:39:52;;;;;;;16.17;15.23;;;9.50;99.90;;;;;;4896231;29;20231;-73
2023/03/14 04:42:18;;;;;;;19.77;18.80;;;9.50;99.90;;;;;;4896209;29;20499;-74
2023/03/14 04:44:43;;;;;;;20.43;19.30;;;9.50;99.90;;;;;;4895872;29;20271;-74
2023/03/14 04:47:09;;;;;;;16.97;15.97;;;9.40;99.90;;;;;;4896032;29;20223;-74
2023/03/14 04:49:35;;;;;;;13.63;12.90;;;9.40;99.90;;;;;;4894523;29;20187;-73
2023/03/14 04:52:01;;;;;;;10.83;10.33;;;9.40;99.90;;;;;;4895959;29;20180;-73
2023/03/14 04:54:26;;;;;;;7.40;6.90;;;9.40;99.90;;;;;;4895957;29;20215;-73
2023/03/14 04:56:52;;;;;;;4.97;4.50;;;9.30;99.90;;;;;;4895724;29;20226;-74
2023/03/14 04:59:18;;;;;;;4.93;4.73;;;9.30;99.90;;;;;;4895848;29;20183;-73
2023/03/14 05:01:43;;;;;;;6.03;5.43;;;9.30;99.90;;;;;;4895618;29;20278;-73
2023/03/14 05:04:09;;;;;;;6.77;6.43;;;9.30;99.90;;;;;;4894731;29;20241;-73
2023/03/14 05:06:35;;;;;;;11.57;10.90;;;9.30;99.90;;;;;;4896131;29;20210;-73
2023/03/14 05:09:01;;;;;;;16.60;15.80;;;9.20;99.90;;;;;;4894495;29;20188;-74
2023/03/14 05:11:27;;;;;;;25.80;24.57;;;9.10;99.90;;;;;;4895626;29;20649;-73
2023/03/14 05:13:52;;;;;;;26.87;25.57;;;9.10;99.90;;;;;;4889282;29;20212;-72
2023/03/14 05:16:18;;;;;;;24.37;23.07;;;9.10;99.90;;;;;;4886410;29;20267;-73
2023/03/14 05:18:44;;;;;;;21.40;20.40;;;9.10;99.90;;;;;;4877260;29;20563;-73
2023/03/14 05:21:09;;;;;;;23.13;21.93;;;9.00;99.90;;;;;;4891661;29;20558;-70
2023/03/14 05:23:35;;;;;;;18.83;17.83;;;9.00;99.90;;;;;;4894691;29;20212;-70
2023/03/14 05:26:01;;;;;;;22.00;20.97;;;9.00;99.90;;;;;;4894775;29;20198;-71
2023/03/14 05:28:26;;;;;;;26.83;25.27;;;9.00;99.90;;;;;;4895809;29;20555;-71
2023/03/14 05:30:52;;;;;;;18.73;17.50;;;9.00;99.90;;;;;;4895167;29;20192;-71
2023/03/14 05:33:18;;;;;;;16.80;15.80;;;9.10;99.90;;;;;;4895649;29;20224;-72
2023/03/14 05:35:44;;;;;;;11.20;10.67;;;9.20;99.90;;;;;;4896146;29;20187;-71
2023/03/14 05:38:19;;;;;;;9.40;8.70;;;9.20;99.90;;;;;;4890018;29;20187;-71
2023/03/14 05:40:45;;;;;;;7.00;6.40;;;9.10;99.90;;;;;;4894372;29;20182;-71
2023/03/14 05:43:11;;;;;;;8.57;7.87;;;9.10;99.90;;;;;;4895631;29;20239;-71
2023/03/14 05:45:37;;;;;;;8.97;8.47;;;9.10;99.90;;;;;;4895451;29;20548;-71
2023/03/14 05:48:03;;;;;;;9.00;8.47;;;9.10;99.90;;;;;;4895621;29;20724;-71
2023/03/14 05:50:29;;;;;;;7.73;7.30;;;9.10;99.90;;;;;;4895260;29;20227;-71
2023/03/14 05:52:54;;;;;;;6.87;6.47;;;9.10;99.90;;;;;;4894190;29;20182;-71
2023/03/14 05:55:20;;;;;;;7.17;6.83;;;9.20;99.90;;;;;;4895520;29;20244;-71
2023/03/14 05:57:46;;;;;;;5.53;5.20;;;9.20;99.90;;;;;;4895508;29;20255;-71
2023/03/14 06:00:12;;;;;;;29.97;28.37;;;9.20;99.90;;;;;;4895143;29;20664;-71
2023/03/14 06:02:38;;;;;;;15.60;14.80;;;9.20;99.90;;;;;;4893284;29;20286;-71
2023/03/14 06:05:05;;;;;;;10.67;10.10;;;9.20;99.90;;;;;;4895417;29;20302;-71
2023/03/14 06:07:30;;;;;;;16.97;16.17;;;9.30;99.90;;;;;;4893433;29;20179;-71
2023/03/14 06:09:58;;;;;;;37.43;35.57;;;9.30;99.90;;;;;;4894389;29;20207;-71
2023/03/14 06:12:24;;;;;;;21.00;19.97;;;9.30;99.90;;;;;;4895676;29;20280;-71
2023/03/14 06:14:50;;;;;;;8.77;7.87;;;9.30;99.90;;;;;;4927024;29;20228;-71
2023/03/14 06:17:15;;;;;;;9.80;9.30;;;9.40;99.90;;;;;;4889774;29;20200;-71
2023/03/14 06:19:41;;;;;;;10.10;9.50;;;9.40;99.90;;;;;;4877747;29;20193;-72
2023/03/14 06:22:07;;;;;;;9.10;8.70;;;9.40;99.90;;;;;;4889751;29;20184;-72
2023/03/14 06:24:33;;;;;;;12.83;12.17;;;9.30;99.90;;;;;;4910648;29;20701;-72
2023/03/14 06:26:58;;;;;;;12.07;11.57;;;9.40;99.90;;;;;;4914519;29;20189;-73
2023/03/14 06:29:24;;;;;;;11.27;10.67;;;9.40;99.90;;;;;;4913819;29;20278;-72
2023/03/14 06:31:50;;;;;;;12.73;10.10;;;9.40;99.90;;;;;;4916897;29;20202;-73
2023/03/14 06:34:16;;;;;;;10.33;9.73;;;9.40;99.90;;;;;;4917637;29;20251;-73
2023/03/14 06:36:41;;;;;;;8.37;7.97;;;9.50;99.90;;;;;;4900092;29;20186;-73
2023/03/14 06:39:07;;;;;;;7.50;6.90;;;9.60;99.90;;;;;;4898825;29;20195;-73
2023/03/14 06:41:33;;;;;;;6.87;6.47;;;9.60;99.90;;;;;;4899112;29;20735;-73
2023/03/14 06:43:59;;;;;;;9.20;8.70;;;9.60;99.90;;;;;;4897549;29;20316;-72
2023/03/14 06:46:24;;;;;;;8.73;8.17;;;9.60;99.90;;;;;;4897556;29;20200;-73
2023/03/14 06:48:50;;;;;;;9.70;9.10;;;9.70;99.90;;;;;;4898958;29;20671;-67
2023/03/14 06:51:16;;;;;;;11.40;10.70;;;9.70;99.90;;;;;;4899018;29;20275;-67
2023/03/14 06:53:41;;;;;;;13.00;12.40;;;9.70;99.90;;;;;;4898283;29;20211;-67
2023/03/14 06:56:08;;;;;;;11.60;10.83;;;9.70;99.90;;;;;;4898757;29;20183;-67
2023/03/14 06:58:34;;;;;;;10.90;10.20;;;9.70;99.90;;;;;;4898081;29;20644;-67
2023/03/14 07:00:59;;;;;;;12.30;11.60;;;9.80;99.90;;;;;;4898310;29;20270;-68
2023/03/14 07:03:25;;;;;;;7.80;7.30;;;10.00;99.90;;;;;;4898506;29;20629;-67
2023/03/14 07:05:51;;;;;;;6.30;5.90;;;10.50;99.90;;;;;;4898446;29;20653;-67
2023/03/14 07:08:17;;;;;;;10.10;9.40;;;10.70;99.90;;;;;;4897970;29;20192;-67
2023/03/14 07:10:42;;;;;;;12.77;11.97;;;10.70;99.90;;;;;;4898092;29;20184;-73
2023/03/14 07:13:08;;;;;;;12.97;12.30;;;10.90;99.90;;;;;;4912136;29;20238;-73
2023/03/14 07:15:34;;;;;;;17.40;16.13;;;10.90;99.90;;;;;;4897965;29;20184;-73
2023/03/14 07:18:00;;;;;;;18.50;17.50;;;11.20;99.90;;;;;;4895590;29;20187;-74
2023/03/14 07:20:26;;;;;;;8.33;7.37;;;11.70;99.90;;;;;;4894959;29;20265;-74
2023/03/14 07:22:51;;;;;;;4.17;3.40;;;12.60;99.90;;;;;;4896806;29;20188;-74
2023/03/14 07:25:18;;;;;;;7.33;6.87;;;13.40;99.90;;;;;;4897818;29;20555;-74
2023/03/14 07:27:44;;;;;;;11.47;10.83;;;13.70;99.90;;;;;;4897032;29;20187;-74
2023/03/14 07:30:11;;;;;;;5.37;4.97;;;14.00;99.90;;;;;;4896794;29;20223;-74
2023/03/14 07:32:37;;;;;;;6.90;4.87;;;14.30;99.90;;;;;;4897018;29;20192;-74
2023/03/14 07:35:03;;;;;;;41.70;39.73;;;14.70;99.90;;;;;;4896785;29;20216;-74
2023/03/14 07:37:29;;;;;;;33.60;31.90;;;15.20;99.90;;;;;;4898039;29;20184;-73
2023/03/14 07:39:54;;;;;;;21.57;20.53;;;15.50;99.90;;;;;;4897669;29;20236;-73
2023/03/14 07:42:20;;;;;;;4.43;4.17;;;15.70;99.90;;;;;;4896920;29;20188;-73
2023/03/14 07:44:46;;;;;;;5.53;3.70;;;16.10;99.90;;;;;;4898013;29;20675;-74
2023/03/14 07:47:12;;;;;;;4.33;3.93;;;16.00;99.90;;;;;;4896864;29;20215;-74
2023/03/14 07:49:37;;;;;;;3.50;3.40;;;15.80;99.90;;;;;;4897539;29;20191;-75
2023/03/14 07:52:03;;;;;;;3.80;3.70;;;16.00;99.90;;;;;;4897797;29;20215;-74
2023/03/14 07:54:29;;;;;;;3.60;3.40;;;16.00;99.90;;;;;;4897616;29;20204;-74
2023/03/14 07:56:55;;;;;;;6.43;6.13;;;16.40;99.90;;;;;;4897737;29;20218;-74
2023/03/14 07:59:21;;;;;;;6.30;6.00;;;16.30;99.90;;;;;;4897641;29;20271;-72
2023/03/14 08:01:46;;;;;;;6.90;6.50;;;16.10;99.90;;;;;;4897386;29;20191;-75
2023/03/14 08:04:12;;;;;;;5.17;4.87;;;15.70;99.90;;;;;;4897233;29;20577;-73
2023/03/14 08:06:38;;;;;;;4.27;3.97;;;15.70;99.90;;;;;;4899060;29;20192;-74
2023/03/14 08:09:04;;;;;;;5.57;5.23;;;16.10;99.90;;;;;;4896660;29;20187;-73
2023/03/14 08:11:30;;;;;;;8.57;8.17;;;16.40;99.90;;;;;;4899402;29;20187;-73
2023/03/14 08:13:56;;;;;;;10.83;10.13;;;16.70;99.90;;;;;;4897737;29;20283;-73
2023/03/14 08:16:22;;;;;;;11.40;10.73;;;16.60;99.90;;;;;;4897139;29;20180;-74
2023/03/14 08:18:48;;;;;;;10.57;9.73;;;16.50;99.90;;;;;;4896843;29;20262;-74
2023/03/14 08:21:14;;;;;;;12.10;11.17;;;16.50;99.90;;;;;;4895827;29;20613;-73
2023/03/14 08:23:40;;;;;;;11.07;10.23;;;16.80;99.90;;;;;;4896710;29;20215;-73
2023/03/14 08:26:06;;;;;;;11.23;10.70;;;17.30;99.90;;;;;;4895925;29;20240;-73
2023/03/14 08:28:33;;;;;;;9.93;9.27;;;17.00;99.90;;;;;;4896824;29;20251;-73
2023/03/14 08:31:00;;;;;;;10.03;9.37;;;16.40;99.90;;;;;;4895862;29;20191;-74
2023/03/14 08:33:27;;;;;;;11.17;10.57;;;16.20;99.90;;;;;;4896867;29;20219;-74
2023/03/14 08:35:55;;;;;;;10.40;10.00;;;16.10;99.90;;;;;;4897048;29;20252;-74
2023/03/14 08:38:20;;;;;;;16.93;16.23;;;16.00;99.90;;;;;;4896701;29;20648;-74
2023/03/14 08:40:47;;;;;;;13.90;13.30;;;16.20;99.90;;;;;;4896920;29;20276;-74
2023/03/14 08:43:12;;;;;;;11.97;11.37;;;16.20;99.90;;;;;;4896841;29;20766;-74
2023/03/14 08:45:38;;;;;;;11.30;10.70;;;16.70;99.90;;;;;;4897350;29;20188;-74
2023/03/14 08:48:04;;;;;;;9.13;8.57;;;16.90;99.90;;;;;;4896827;29;20683;-74
2023/03/14 08:50:30;;;;;;;11.27;10.67;;;17.30;99.90;;;;;;4896467;29;20191;-73
2023/03/14 08:52:59;;;;;;;12.43;11.93;;;17.50;99.90;;;;;;4896391;29;20220;-73
2023/03/14 08:55:27;;;;;;;14.50;13.90;;;17.30;99.90;;;;;;4895469;29;20212;-73
2023/03/14 08:57:53;;;;;;;11.17;10.67;;;17.10;99.90;;;;;;4896725;29;20186;-74
2023/03/14 09:00:19;;;;;;;11.07;10.47;;;16.50;99.90;;;;;;4896291;29;20195;-73
2023/03/14 09:02:45;;;;;;;8.27;7.67;;;16.00;99.90;;;;;;4896601;29;20564;-74
2023/03/14 09:05:12;;;;;;;9.23;8.57;;;15.50;99.90;;;;;;4895367;29;20191;-73
2023/03/14 09:07:39;;;;;;;13.93;13.23;;;15.40;99.90;;;;;;4896501;29;20191;-74
2023/03/14 09:10:06;;;;;;;17.60;16.53;;;15.20;99.90;;;;;;4896039;29;20664;-74
2023/03/14 09:12:32;;;;;;;8.90;8.40;;;15.30;99.90;;;;;;4895495;29;20194;-74
2023/03/14 09:14:58;;;;;;;16.27;15.57;;;15.60;99.90;;;;;;4895061;29;20588;-74
2023/03/14 09:17:24;;;;;;;18.57;17.73;;;16.00;99.90;;;;;;4896604;29;20187;-74
2023/03/14 09:19:49;;;;;;;14.40;13.60;;;16.30;99.90;;;;;;4896405;29;20232;-74
2023/03/14 09:22:15;;;;;;;8.63;8.23;;;16.70;99.90;;;;;;4896518;29;20206;-74
2023/03/14 09:24:41;;;;;;;10.33;9.93;;;17.10;99.90;;;;;;4895021;29;20203;-74
2023/03/14 09:27:07;;;;;;;9.63;9.23;;;16.40;99.90;;;;;;4896248;29;20192;-74
2023/03/14 09:29:33;;;;;;;8.00;7.50;;;16.00;99.90;;;;;;4895962;29;20191;-73
2023/03/14 09:31:59;;;;;;;23.13;22.13;;;14.80;99.90;;;;;;4896247;29;20179;-74
2023/03/14 09:34:25;;;;;;;26.87;25.57;;;14.10;99.90;;;;;;4894986;29;20267;-73
2023/03/14 09:36:51;;;;;;;63.90;60.83;;;13.70;99.90;;;;;;4896384;29;20188;-74
2023/03/14 09:39:17;;;;;;;75.63;71.97;;;13.70;99.90;;;;;;4896302;29;20240;-74
2023/03/14 09:41:46;;;;;;;43.83;41.70;;;13.60;99.90;;;;;;4896186;29;20187;-74
2023/03/14 09:44:17;;;;;;;38.77;36.97;;;13.70;99.90;;;;;;4895142;29;20212;-74
2023/03/14 09:46:48;;;;;;;36.50;34.83;;;13.80;99.90;;;;;;4897621;29;20549;-74
2023/03/14 09:49:36;;;;;;;51.57;49.13;;;14.00;99.90;;;;;;4897969;29;20538;-73
2023/03/14 09:52:27;;;;;;;47.20;44.97;;;14.10;99.90;;;;;;4896483;29;20562;-74
2023/03/14 09:55:04;;;;;;;38.40;36.63;;;14.10;99.90;;;;;;4895195;29;20264;-74
2023/03/14 09:57:32;;;;;;;38.57;36.70;;;14.20;99.90;;;;;;4896255;29;20274;-75
2023/03/14 10:00:11;;;;;;;57.37;54.53;;;14.60;99.90;;;;;;4895900;29;20176;-74
2023/03/14 10:02:38;;;;;;;74.10;70.40;;;14.70;99.90;;;;;;4896010;29;20211;-74
2023/03/14 10:05:16;;;;;;;61.40;58.50;;;14.80;99.90;;;;;;4896389;29;20670;-74
2023/03/14 10:07:42;;;;;;;12.33;11.77;;;15.00;99.90;;;;;;4898548;29;20198;-74
2023/03/14 10:10:15;;;;;;;38.47;36.67;;;15.40;99.90;;;;;;4897837;29;20191;-74
2023/03/14 10:12:43;;;;;;;5.60;5.30;;;15.30;99.90;;;;;;4898658;29;20616;-74
2023/03/14 10:15:22;;;;;;;5.90;5.70;;;15.70;99.90;;;;;;4920931;23;20231;-72
2023/03/14 10:17:49;;;;;;;12.03;11.43;;;16.00;99.90;;;;;;4909347;29;20188;-72
2023/03/14 10:20:38;;;;;;;11.40;10.90;;;16.80;99.90;;;;;;4914902;29;20328;-72
2023/03/14 10:23:12;;;;;;;12.60;11.70;;;17.80;99.90;;;;;;4906553;29;20196;-72
2023/03/14 10:25:41;;;;;;;15.77;15.00;;;18.40;99.90;;;;;;4899377;29;20780;-72
2023/03/14 10:28:33;;;;;;;14.47;13.77;;;18.40;99.90;;;;;;4899316;29;20669;-73
2023/03/14 10:31:00;;;;;;;12.37;11.87;;;17.90;99.90;;;;;;4898102;29;20183;-72
2023/03/14 10:33:31;;;;;;;15.67;15.00;;;17.70;99.90;;;;;;4899073;29;20206;-73
2023/03/14 10:36:20;;;;;;;11.30;10.57;;;17.80;99.90;;;;;;4899250;29;20263;-72
2023/03/14 10:38:46;;;;;;;13.43;12.93;;;17.90;99.90;;;;;;4898965;29;20601;-72
2023/03/14 10:41:20;;;;;;;16.40;15.70;;;17.70;99.90;;;;;;4913954;29;20187;-73
2023/03/14 10:43:51;;;;;;;16.87;16.17;;;18.00;99.90;;;;;;4903306;29;20583;-72
2023/03/14 10:46:19;;;;;;;7.87;7.57;;;18.00;99.90;;;;;;4899324;29;20195;-72
2023/03/14 10:48:46;;;;;;;6.67;6.47;;;18.40;99.90;;;;;;4898825;29;20653;-72
2023/03/14 10:51:19;;;;;;;2.97;2.87;;;18.80;99.90;;;;;;4897772;29;20240;-72
2023/03/14 10:53:58;;;;;;;3.47;3.20;;;19.30;99.90;;;;;;4899014;29;20230;-73
2023/03/14 10:56:26;;;;;;;3.83;3.63;;;18.70;99.90;;;;;;4897771;29;20180;-72
2023/03/14 10:58:57;;;;;;;3.77;3.53;;;18.20;99.90;;;;;;4897556;29;20244;-72
2023/03/14 11:01:46;;;;;;;7.97;7.67;;;17.30;99.90;;;;;;4898706;29;20183;-72
2023/03/14 11:04:14;;;;;;;30.00;28.57;;;16.80;99.90;;;;;;4897770;29;20683;-73
2023/03/14 11:07:13;;;;;;;28.60;27.17;;;16.00;99.90;;;;;;4898837;29;20561;-72
2023/03/14 11:09:46;;;;;;;16.07;15.37;;;15.60;99.90;;;;;;4898259;29;20652;-72
2023/03/14 11:12:49;;;;;;;9.53;9.10;;;15.40;99.90;;;;;;4898732;29;20206;-72
2023/03/14 11:15:50;;;;;;;14.13;13.50;;;14.90;99.90;;;;;;4898563;29;20266;-73
2023/03/14 11:18:42;;;;;;;13.33;12.63;;;14.60;99.90;;;;;;4898426;29;20184;-72
2023/03/14 11:21:13;;;;;;;18.63;17.80;;;14.40;99.90;;;;;;4871666;29;20196;-72
2023/03/14 11:24:14;;;;;;;43.60;41.63;;;14.30;99.90;;;;;;4897102;29;20212;-72
2023/03/14 11:26:39;;;;;;;23.50;22.40;;;14.20;99.90;;;;;;4868019;29;20786;-72
2023/03/14 11:29:17;;;;;;;64.30;60.87;;;14.00;99.90;;;;;;4897953;29;20270;-72
2023/03/14 11:31:44;;;;;;;94.67;90.10;;;13.90;99.90;;;;;;4898231;29;20591;-72
2023/03/14 11:34:28;;;;;;;93.60;89.20;;;13.90;99.90;;;;;;4898100;29;20286;-73
2023/03/14 11:37:21;;;;;;;54.57;52.00;;;13.70;99.90;;;;;;4898182;29;20719;-72
2023/03/14 11:39:56;;;;;;;34.30;32.70;;;13.60;99.90;;;;;;4897712;29;20183;-72
2023/03/14 11:42:24;;;;;;;28.37;27.07;;;13.50;99.90;;;;;;4897042;29;20185;-72
2023/03/14 11:44:50;;;;;;;25.83;24.70;;;13.40;99.90;;;;;;4898028;29;20703;-72
2023/03/14 11:47:27;;;;;;;6.83;6.40;;;13.30;99.90;;;;;;4897997;29;20191;-72
2023/03/14 11:50:15;;;;;;;4.73;4.43;;;12.80;99.90;;;;;;4897669;29;20202;-72
2023/03/14 11:52:49;;;;;;;17.17;16.33;;;12.20;99.90;;;;;;4897923;29;20243;-72
2023/03/14 11:55:26;;;;;;;14.10;13.50;;;11.70;99.90;;;;;;4897634;29;20223;-72
2023/03/14 11:57:56;;;;;;;12.13;11.63;;;11.40;99.90;;;;;;4896738;29;20191;-72
2023/03/14 12:00:24;;;;;;;5.97;5.77;;;11.30;99.90;;;;;;4897527;29;20230;-71
2023/03/14 12:02:50;;;;;;;13.33;12.77;;;11.30;99.90;;;;;;4897722;29;20190;-71
2023/03/14 12:05:24;;;;;;;22.20;21.23;;;11.30;99.90;;;;;;4897530;29;20232;-71
2023/03/14 12:08:09;;;;;;;17.17;16.40;;;11.20;99.90;;;;;;4896314;29;20569;-71
2023/03/14 12:10:52;;;;;;;11.67;11.17;;;11.30;99.90;;;;;;4897209;29;20283;-71
2023/03/14 12:13:19;;;;;;;4.23;4.10;;;11.20;99.90;;;;;;4896091;29;20196;-71
2023/03/14 12:15:56;;;;;;;3.73;3.63;;;11.30;99.90;;;;;;4897658;29;20270;-71
2023/03/14 12:18:29;;;;;;;4.77;4.47;;;11.20;99.90;;;;;;4897230;29;20180;-72
2023/03/14 12:21:01;;;;;;;3.83;3.73;;;11.20;99.90;;;;;;4897525;29;20187;-71
2023/03/14 12:23:33;;;;;;;3.13;3.00;;;11.30;99.90;;;;;;4897323;29;20231;-71
2023/03/14 12:26:28;;;;;;;45.83;43.73;;;11.20;99.90;;;;;;4896035;29;20199;-71
2023/03/14 12:28:57;;;;;;;24.17;23.13;;;11.20;99.90;;;;;;4893096;29;20191;-71
2023/03/14 12:31:31;;;;;;;5.20;5.10;;;11.30;99.90;;;;;;4897057;29;20180;-71
2023/03/14 12:34:10;;;;;;;3.63;3.53;;;11.40;99.90;;;;;;4895827;29;20219;-71
2023/03/14 12:36:51;;;;;;;4.00;3.83;;;11.40;99.90;;;;;;4914239;29;20236;-71
2023/03/14 12:39:39;;;;;;;4.87;4.77;;;11.50;99.90;;;;;;4901069;29;20210;-70
2023/03/14 12:42:14;;;;;;;4.87;4.77;;;11.50;99.90;;;;;;4897415;29;20652;-71
2023/03/14 12:44:45;;;;;;;11.40;10.97;;;11.60;99.90;;;;;;4896899;29;20207;-71
2023/03/14 12:47:17;;;;;;;9.20;8.87;;;11.50;99.90;;;;;;4896823;29;20183;-71
2023/03/14 12:49:48;;;;;;;50.63;48.17;;;11.70;99.90;;;;;;4896647;29;20191;-71
2023/03/14 12:52:22;;;;;;;5.30;5.20;;;12.10;99.90;;;;;;4895742;29;20183;-71
2023/03/14 12:55:06;;;;;;;3.60;3.50;;;12.20;99.90;;;;;;4896670;29;20223;-71
2023/03/14 12:57:56;;;;;;;16.37;15.60;;;12.40;99.90;;;;;;4896798;29;20267;-71
2023/03/14 13:00:34;;;;;;;8.47;8.17;;;12.90;99.90;;;;;;4896332;29;20179;-71
2023/03/14 13:03:13;;;;;;;3.23;3.10;;;12.90;99.90;;;;;;4896840;29;20234;-72
2023/03/14 13:05:58;;;;;;;16.83;16.10;;;12.90;99.90;;;;;;4896633;29;20183;-72
2023/03/14 13:08:37;;;;;;;5.73;5.53;;;12.50;99.90;;;;;;4895089;29;20190;-72
2023/03/14 13:11:07;;;;;;;15.30;14.47;;;12.50;99.90;;;;;;4895127;29;20184;-72
2023/03/14 13:13:36;;;;;;;7.47;7.07;;;11.70;99.90;;;;;;4896172;29;20298;-72
2023/03/14 13:16:06;;;;;;;6.40;6.13;;;11.80;99.90;;;;;;4896385;29;20183;-71
2023/03/14 13:18:41;;;;;;;46.50;44.27;;;12.50;99.90;;;;;;4896074;29;20180;-71
2023/03/14 13:21:21;;;;;;;7.77;7.27;;;13.20;99.90;;;;;;4896169;29;20715;-71
2023/03/14 13:24:22;;;;;;;3.37;3.27;;;14.00;99.90;;;;;;4894951;29;20203;-72
2023/03/14 13:26:48;;;;;;;5.43;4.93;;;14.40;99.90;;;;;;4895187;29;20192;-71
2023/03/14 13:29:23;;;;;;;3.53;3.43;;;14.70;99.90;;;;;;4895841;29;20180;-71
2023/03/14 13:32:25;;;;;;;3.67;3.57;;;13.90;99.90;;;;;;4896205;29;20187;-71
2023/03/14 13:34:51;;;;;;;3.43;3.33;;;13.60;99.90;;;;;;4894443;29;20696;-71
2023/03/14 13:37:22;;;;;;;3.73;3.43;;;12.90;99.90;;;;;;4895068;29;20230;-72
2023/03/14 13:39:56;;;;;;;5.60;5.40;;;12.70;99.90;;;;;;4897542;29;20420;-71
2023/03/14 13:42:25;;;;;;;5.80;5.50;;;11.90;99.90;;;;;;4900203;29;20184;-71
2023/03/14 13:44:54;;;;;;;3.83;3.57;;;11.60;99.90;;;;;;4900144;29;20214;-72
2023/03/14 13:47:22;;;;;;;4.10;3.90;;;12.20;99.90;;;;;;4898936;29;20314;-73
2023/03/14 13:49:49;;;;;;;3.53;3.40;;;12.60;99.90;;;;;;4899793;29;20188;-73
2023/03/14 13:52:27;;;;;;;3.03;2.93;;;12.60;99.90;;;;;;4900086;29;20236;-72
2023/03/14 13:54:55;;;;;;;6.23;5.73;;;12.40;99.90;;;;;;4921022;29;20719;-72
2023/03/14 13:57:21;;;;;;;3.33;3.17;;;11.60;99.90;;;;;;4919430;29;20190;-72
2023/03/14 14:00:00;;;;;;;6.37;5.20;;;11.20;99.90;;;;;;4907510;29;20184;-72
2023/03/14 14:02:27;;;;;;;6.13;5.67;;;11.40;99.90;;;;;;4898754;29;20184;-72
2023/03/14 14:04:53;;;;;;;4.73;4.53;;;11.00;99.90;;;;;;4899663;29;20592;-71
2023/03/14 14:07:19;;;;;;;6.80;6.50;;;11.30;99.90;;;;;;4899614;29;20189;-72
2023/03/14 14:09:49;;;;;;;4.27;3.97;;;11.40;99.90;;;;;;4898030;29;20198;-72
2023/03/14 14:12:21;;;;;;;4.67;4.17;;;11.50;99.90;;;;;;4899516;29;20223;-72
2023/03/14 14:14:58;;;;;;;3.47;3.27;;;11.70;99.90;;;;;;4898016;29;20308;-72
2023/03/14 14:17:32;;;;;;;3.77;3.57;;;11.50;99.90;;;;;;4899460;29;20555;-72
2023/03/14 14:20:03;;;;;;;3.10;3.00;;;11.30;99.90;;;;;;4897817;29;20191;-72
2023/03/14 14:22:30;;;;;;;3.10;2.90;;;11.10;99.90;;;;;;4898360;29;20184;-72
2023/03/14 14:24:56;;;;;;;3.43;3.10;;;10.90;99.90;;;;;;4898895;29;20208;-72
2023/03/14 14:27:34;;;;;;;3.27;3.17;;;10.70;99.90;;;;;;4899243;29;20246;-72
2023/03/14 14:30:26;;;;;;;3.47;3.10;;;10.50;99.90;;;;;;4899288;29;20191;-72
2023/03/14 14:32:52;;;;;;;3.10;3.00;;;10.50;99.90;;;;;;4909712;29;20191;-72
2023/03/14 14:35:25;;;;;;;3.13;3.03;;;10.30;99.90;;;;;;4903281;29;20227;-72
2023/03/14 14:37:52;;;;;;;3.40;3.10;;;10.40;99.90;;;;;;4902601;29;20184;-72
2023/03/14 14:40:22;;;;;;;3.27;3.17;;;10.30;99.90;;;;;;4900394;29;20187;-72
2023/03/14 14:42:49;;;;;;;3.93;3.63;;;10.30;99.80;;;;;;4899399;29;20184;-72
2023/03/14 14:45:23;;;;;;;3.30;3.20;;;10.20;98.40;;;;;;4897935;29;20233;-72
2023/03/14 14:47:59;;;;;;;4.87;3.40;;;10.10;98.70;;;;;;4899157;29;20195;-72
2023/03/14 14:50:34;;;;;;;3.70;3.40;;;10.00;99.30;;;;;;4898712;29;20187;-71
2023/03/14 14:53:03;;;;;;;4.63;3.50;;;10.00;99.40;;;;;;4898996;29;20564;-72
2023/03/14 14:55:38;;;;;;;3.50;3.20;;;10.00;99.20;;;;;;4898772;29;20219;-73
2023/03/14 14:58:40;;;;;;;6.90;6.60;;;10.10;99.90;;;;;;4898957;29;20192;-72
2023/03/14 15:01:15;;;;;;;2.90;2.80;;;10.30;99.40;;;;;;4891399;29;20221;-73
2023/03/14 15:03:44;;;;;;;4.03;3.73;;;10.40;99.70;;;;;;4897485;29;20289;-72
2023/03/14 15:06:12;;;;;;;3.50;3.20;;;10.40;99.40;;;;;;4898677;29;20195;-72
2023/03/14 15:08:38;;;;;;;4.30;3.17;;;10.30;99.50;;;;;;4898442;29;20242;-73
2023/03/14 15:11:04;;;;;;;4.03;3.73;;;10.20;99.90;;;;;;4898486;29;20266;-72
2023/03/14 15:13:30;;;;;;;3.60;3.47;;;10.00;98.50;;;;;;4897231;29;20215;-72
2023/03/14 15:15:56;;;;;;;3.63;3.40;;;9.90;99.90;;;;;;4898527;29;20557;-72
2023/03/14 15:18:28;;;;;;;3.50;3.30;;;9.90;99.80;;;;;;4898092;29;20258;-72
2023/03/14 15:20:54;;;;;;;3.30;3.20;;;10.00;99.90;;;;;;4898459;29;20564;-72
2023/03/14 15:23:21;;;;;;;3.60;3.40;;;10.20;99.90;;;;;;4898046;29;20184;-72
2023/03/14 15:25:48;;;;;;;4.77;3.43;;;10.30;99.60;;;;;;4898291;29;20719;-72
2023/03/14 15:28:22;;;;;;;4.83;3.73;;;10.30;99.30;;;;;;4898350;29;20188;-73
2023/03/14 15:30:50;;;;;;;3.70;3.50;;;10.50;99.30;;;;;;4898476;29;20538;-73
2023/03/14 15:33:16;;;;;;;3.73;3.50;;;10.60;99.20;;;;;;4896381;29;20294;-72
2023/03/14 15:35:42;;;;;;;7.00;5.63;;;10.50;98.90;;;;;;4894007;29;20298;-72
2023/03/14 15:38:21;;;;;;;6.63;6.03;;;10.50;99.70;;;;;;4894213;29;20303;-72
2023/03/14 15:40:47;;;;;;;5.20;4.70;;;10.60;99.70;;;;;;4896751;29;20314;-72
2023/03/14 15:43:13;;;;;;;5.93;5.10;;;10.60;99.20;;;;;;4893627;29;20266;-78
2023/03/14 15:45:40;;;;;;;5.17;4.53;;;11.10;99.00;;;;;;4895640;29;20191;-72
2023/03/14 15:48:05;;;;;;;4.80;4.40;;;11.40;98.90;;;;;;4897345;29;20195;-71
2023/03/14 15:50:31;;;;;;;4.60;4.10;;;11.70;97.80;;;;;;4896280;29;20284;-71
2023/03/14 15:52:57;;;;;;;4.47;4.07;;;11.70;96.80;;;;;;4896323;29;20202;-71
2023/03/14 15:55:23;;;;;;;4.67;4.23;;;11.50;96.80;;;;;;4897581;29;20219;-71
2023/03/14 15:57:49;;;;;;;3.87;3.60;;;11.10;97.20;;;;;;4896675;29;20184;-72
2023/03/14 16:00:18;;;;;;;3.40;3.30;;;10.80;97.50;;;;;;4895992;29;20183;-75
2023/03/14 16:02:44;;;;;;;4.67;3.93;;;10.40;97.10;;;;;;4896659;29;20212;-72
2023/03/14 16:05:11;;;;;;;4.43;4.00;;;10.10;98.20;;;;;;4897572;29;20684;-73
2023/03/14 16:07:38;;;;;;;4.53;4.17;;;10.00;99.00;;;;;;4897814;29;20190;-73
2023/03/14 16:10:05;;;;;;;4.17;3.80;;;9.90;99.50;;;;;;4896125;29;20615;-72
2023/03/14 16:12:31;;;;;;;4.70;4.03;;;9.90;99.90;;;;;;4897602;29;20195;-71
2023/03/14 16:14:57;;;;;;;4.50;3.50;;;9.90;99.90;;;;;;4941708;23;20238;-73
2023/03/14 16:17:23;;;;;;;3.70;3.50;;;10.40;99.90;;;;;;4924679;29;20187;-73
2023/03/14 16:19:49;;;;;;;3.63;3.40;;;10.80;99.80;;;;;;4933288;29;20213;-73
2023/03/14 16:22:14;;;;;;;6.53;3.80;;;11.80;98.30;;;;;;4920334;29;20183;-73
2023/03/14 16:24:40;;;;;;;4.60;4.30;;;12.30;96.70;;;;;;4915806;29;20212;-74
2023/03/14 16:27:08;;;;;;;4.93;3.80;;;11.60;97.30;;;;;;4917454;29;20191;-74
2023/03/14 16:29:34;;;;;;;3.80;3.60;;;10.80;98.50;;;;;;4917265;29;20194;-73
2023/03/14 16:31:59;;;;;;;4.10;3.80;;;10.10;99.70;;;;;;4917159;29;20191;-74
2023/03/14 16:34:26;;;;;;;3.70;3.40;;;9.90;99.90;;;;;;4916535;29;20586;-76
2023/03/14 16:36:52;;;;;;;4.57;3.93;;;9.70;99.90;;;;;;4923405;29;20232;-74
2023/03/14 16:39:19;;;;;;;4.97;4.70;;;9.60;99.90;;;;;;4935632;29;20651;-74
2023/03/14 16:41:45;;;;;;;7.03;6.53;;;9.50;99.90;;;;;;4935833;29;20174;-74
2023/03/14 16:44:10;;;;;;;6.53;6.23;;;9.40;99.90;;;;;;4934716;29;20297;-74
2023/03/14 16:46:36;;;;;;;5.43;5.03;;;9.30;99.90;;;;;;4929654;29;20274;-75
2023/03/14 16:49:04;;;;;;;4.10;3.77;;;9.20;99.90;;;;;;4915851;29;20187;-75
2023/03/14 16:51:30;;;;;;;4.93;3.87;;;9.20;99.90;;;;;;4916284;29;20268;-74
2023/03/14 16:53:55;;;;;;;3.67;3.47;;;9.10;99.90;;;;;;4915453;29;20238;-74